<?xml version="1.0" encoding="UTF-8" standalone="no" ?>
<gpx xmlns="http://www.topografix.com/GPX/1/1" xmlns:xsi="http://www.w3.org/2001/XMLSchema-instance" xsi:schemaLocation="http://www.topografix.com/GPX/1/1 http://www.topografix.com/GPX/1/1/gpx.xsd" version="1.1" creator="VisuGPX - https://www.visugpx.com">
  <metadata>
    <name>Sortie Moto</name>
  </metadata>
  <trk>
    <name><![CDATA[Journal actif: 2020-04-07 10:32]]></name>
    <trkseg>
      <trkpt lat="46.06816" lon="6.30471">
        <ele>582.22</ele>
        <time>2020-04-07T08:32:44Z</time>
      </trkpt>
      <trkpt lat="46.06825" lon="6.30471">
        <ele>577.41</ele>
        <time>2020-04-07T08:32:50Z</time>
      </trkpt>
      <trkpt lat="46.06828" lon="6.30467">
        <ele>577.89</ele>
        <time>2020-04-07T08:32:52Z</time>
      </trkpt>
      <trkpt lat="46.0683" lon="6.30461">
        <ele>577.89</ele>
        <time>2020-04-07T08:32:53Z</time>
      </trkpt>
      <trkpt lat="46.06834" lon="6.30451">
        <ele>577.89</ele>
        <time>2020-04-07T08:32:54Z</time>
      </trkpt>
      <trkpt lat="46.06838" lon="6.30439">
        <ele>577.89</ele>
        <time>2020-04-07T08:32:55Z</time>
      </trkpt>
      <trkpt lat="46.06843" lon="6.30424">
        <ele>577.89</ele>
        <time>2020-04-07T08:32:56Z</time>
      </trkpt>
      <trkpt lat="46.06854" lon="6.30394">
        <ele>578.85</ele>
        <time>2020-04-07T08:32:58Z</time>
      </trkpt>
      <trkpt lat="46.06858" lon="6.30364">
        <ele>578.85</ele>
        <time>2020-04-07T08:33:00Z</time>
      </trkpt>
      <trkpt lat="46.06859" lon="6.30333">
        <ele>578.85</ele>
        <time>2020-04-07T08:33:02Z</time>
      </trkpt>
      <trkpt lat="46.06861" lon="6.30259">
        <ele>579.81</ele>
        <time>2020-04-07T08:33:07Z</time>
      </trkpt>
      <trkpt lat="46.06863" lon="6.30253">
        <ele>579.81</ele>
        <time>2020-04-07T08:33:08Z</time>
      </trkpt>
      <trkpt lat="46.06866" lon="6.30242">
        <ele>579.33</ele>
        <time>2020-04-07T08:33:09Z</time>
      </trkpt>
      <trkpt lat="46.06885" lon="6.30233">
        <ele>579.81</ele>
        <time>2020-04-07T08:33:10Z</time>
      </trkpt>
      <trkpt lat="46.06885" lon="6.30233">
        <ele>579.81</ele>
        <time>2020-04-07T08:33:11Z</time>
      </trkpt>
      <trkpt lat="46.06896" lon="6.30228">
        <ele>579.81</ele>
        <time>2020-04-07T08:33:12Z</time>
      </trkpt>
      <trkpt lat="46.06957" lon="6.3019">
        <ele>581.73</ele>
        <time>2020-04-07T08:33:16Z</time>
      </trkpt>
      <trkpt lat="46.0703" lon="6.30097">
        <ele>586.06</ele>
        <time>2020-04-07T08:33:22Z</time>
      </trkpt>
      <trkpt lat="46.07039" lon="6.30085">
        <ele>587.5</ele>
        <time>2020-04-07T08:33:23Z</time>
      </trkpt>
      <trkpt lat="46.07046" lon="6.30075">
        <ele>588.46</ele>
        <time>2020-04-07T08:33:24Z</time>
      </trkpt>
      <trkpt lat="46.07056" lon="6.3006">
        <ele>589.91</ele>
        <time>2020-04-07T08:33:26Z</time>
      </trkpt>
      <trkpt lat="46.07061" lon="6.30057">
        <ele>590.87</ele>
        <time>2020-04-07T08:33:27Z</time>
      </trkpt>
      <trkpt lat="46.07078" lon="6.30057">
        <ele>591.35</ele>
        <time>2020-04-07T08:33:28Z</time>
      </trkpt>
      <trkpt lat="46.0708" lon="6.30058">
        <ele>592.79</ele>
        <time>2020-04-07T08:33:30Z</time>
      </trkpt>
      <trkpt lat="46.07088" lon="6.30059">
        <ele>592.79</ele>
        <time>2020-04-07T08:33:31Z</time>
      </trkpt>
      <trkpt lat="46.07093" lon="6.30053">
        <ele>593.27</ele>
        <time>2020-04-07T08:33:32Z</time>
      </trkpt>
      <trkpt lat="46.07111" lon="6.3003">
        <ele>592.79</ele>
        <time>2020-04-07T08:33:34Z</time>
      </trkpt>
      <trkpt lat="46.07122" lon="6.3002">
        <ele>592.31</ele>
        <time>2020-04-07T08:33:35Z</time>
      </trkpt>
      <trkpt lat="46.07134" lon="6.3001">
        <ele>591.83</ele>
        <time>2020-04-07T08:33:36Z</time>
      </trkpt>
      <trkpt lat="46.07188" lon="6.29965">
        <ele>591.83</ele>
        <time>2020-04-07T08:33:40Z</time>
      </trkpt>
      <trkpt lat="46.07215" lon="6.29943">
        <ele>592.79</ele>
        <time>2020-04-07T08:33:42Z</time>
      </trkpt>
      <trkpt lat="46.07295" lon="6.2988">
        <ele>595.67</ele>
        <time>2020-04-07T08:33:49Z</time>
      </trkpt>
      <trkpt lat="46.07337" lon="6.29846">
        <ele>597.6</ele>
        <time>2020-04-07T08:33:56Z</time>
      </trkpt>
      <trkpt lat="46.07395" lon="6.29805">
        <ele>598.56</ele>
        <time>2020-04-07T08:34:01Z</time>
      </trkpt>
      <trkpt lat="46.07425" lon="6.29786">
        <ele>599.04</ele>
        <time>2020-04-07T08:34:03Z</time>
      </trkpt>
      <trkpt lat="46.07439" lon="6.29776">
        <ele>599.04</ele>
        <time>2020-04-07T08:34:04Z</time>
      </trkpt>
      <trkpt lat="46.07453" lon="6.29767">
        <ele>599.04</ele>
        <time>2020-04-07T08:34:05Z</time>
      </trkpt>
      <trkpt lat="46.07496" lon="6.29743">
        <ele>597.12</ele>
        <time>2020-04-07T08:34:08Z</time>
      </trkpt>
      <trkpt lat="46.07543" lon="6.29737">
        <ele>595.19</ele>
        <time>2020-04-07T08:34:11Z</time>
      </trkpt>
      <trkpt lat="46.07558" lon="6.29737">
        <ele>594.23</ele>
        <time>2020-04-07T08:34:12Z</time>
      </trkpt>
      <trkpt lat="46.07573" lon="6.2974">
        <ele>593.75</ele>
        <time>2020-04-07T08:34:13Z</time>
      </trkpt>
      <trkpt lat="46.07612" lon="6.29758">
        <ele>591.83</ele>
        <time>2020-04-07T08:34:17Z</time>
      </trkpt>
      <trkpt lat="46.07625" lon="6.29761">
        <ele>590.87</ele>
        <time>2020-04-07T08:34:18Z</time>
      </trkpt>
      <trkpt lat="46.07625" lon="6.29761">
        <ele>590.39</ele>
        <time>2020-04-07T08:34:19Z</time>
      </trkpt>
      <trkpt lat="46.07632" lon="6.29761">
        <ele>590.39</ele>
        <time>2020-04-07T08:34:20Z</time>
      </trkpt>
      <trkpt lat="46.07638" lon="6.29705">
        <ele>590.87</ele>
        <time>2020-04-07T08:34:21Z</time>
      </trkpt>
      <trkpt lat="46.07642" lon="6.29702">
        <ele>591.83</ele>
        <time>2020-04-07T08:34:22Z</time>
      </trkpt>
      <trkpt lat="46.07653" lon="6.29691">
        <ele>592.31</ele>
        <time>2020-04-07T08:34:23Z</time>
      </trkpt>
      <trkpt lat="46.07705" lon="6.29693">
        <ele>592.79</ele>
        <time>2020-04-07T08:34:27Z</time>
      </trkpt>
      <trkpt lat="46.07729" lon="6.29697">
        <ele>590.87</ele>
        <time>2020-04-07T08:34:33Z</time>
      </trkpt>
      <trkpt lat="46.07729" lon="6.29697">
        <ele>590.87</ele>
        <time>2020-04-07T08:34:35Z</time>
      </trkpt>
      <trkpt lat="46.0777" lon="6.29807">
        <ele>586.06</ele>
        <time>2020-04-07T08:34:41Z</time>
      </trkpt>
      <trkpt lat="46.07792" lon="6.29896">
        <ele>581.73</ele>
        <time>2020-04-07T08:34:44Z</time>
      </trkpt>
      <trkpt lat="46.07794" lon="6.29926">
        <ele>579.81</ele>
        <time>2020-04-07T08:34:45Z</time>
      </trkpt>
      <trkpt lat="46.07796" lon="6.29955">
        <ele>577.89</ele>
        <time>2020-04-07T08:34:46Z</time>
      </trkpt>
      <trkpt lat="46.07799" lon="6.29983">
        <ele>576.45</ele>
        <time>2020-04-07T08:34:47Z</time>
      </trkpt>
      <trkpt lat="46.07798" lon="6.30012">
        <ele>574.53</ele>
        <time>2020-04-07T08:34:48Z</time>
      </trkpt>
      <trkpt lat="46.07795" lon="6.3004">
        <ele>572.6</ele>
        <time>2020-04-07T08:34:49Z</time>
      </trkpt>
      <trkpt lat="46.07792" lon="6.30068">
        <ele>571.16</ele>
        <time>2020-04-07T08:34:50Z</time>
      </trkpt>
      <trkpt lat="46.07746" lon="6.30207">
        <ele>561.07</ele>
        <time>2020-04-07T08:34:56Z</time>
      </trkpt>
      <trkpt lat="46.07667" lon="6.30347">
        <ele>551.45</ele>
        <time>2020-04-07T08:35:04Z</time>
      </trkpt>
      <trkpt lat="46.07632" lon="6.30408">
        <ele>548.57</ele>
        <time>2020-04-07T08:35:09Z</time>
      </trkpt>
      <trkpt lat="46.07622" lon="6.3042">
        <ele>547.61</ele>
        <time>2020-04-07T08:35:10Z</time>
      </trkpt>
      <trkpt lat="46.07605" lon="6.30421">
        <ele>546.65</ele>
        <time>2020-04-07T08:35:12Z</time>
      </trkpt>
      <trkpt lat="46.076" lon="6.30431">
        <ele>546.17</ele>
        <time>2020-04-07T08:35:13Z</time>
      </trkpt>
      <trkpt lat="46.07602" lon="6.30446">
        <ele>545.69</ele>
        <time>2020-04-07T08:35:14Z</time>
      </trkpt>
      <trkpt lat="46.076" lon="6.30462">
        <ele>545.2</ele>
        <time>2020-04-07T08:35:15Z</time>
      </trkpt>
      <trkpt lat="46.07593" lon="6.30474">
        <ele>544.72</ele>
        <time>2020-04-07T08:35:16Z</time>
      </trkpt>
      <trkpt lat="46.07589" lon="6.30483">
        <ele>544.24</ele>
        <time>2020-04-07T08:35:17Z</time>
      </trkpt>
      <trkpt lat="46.07583" lon="6.30495">
        <ele>543.76</ele>
        <time>2020-04-07T08:35:18Z</time>
      </trkpt>
      <trkpt lat="46.07532" lon="6.30622">
        <ele>541.36</ele>
        <time>2020-04-07T08:35:26Z</time>
      </trkpt>
      <trkpt lat="46.07502" lon="6.30718">
        <ele>539.44</ele>
        <time>2020-04-07T08:35:31Z</time>
      </trkpt>
      <trkpt lat="46.07475" lon="6.30947">
        <ele>534.15</ele>
        <time>2020-04-07T08:35:41Z</time>
      </trkpt>
      <trkpt lat="46.07462" lon="6.31154">
        <ele>524.06</ele>
        <time>2020-04-07T08:35:50Z</time>
      </trkpt>
      <trkpt lat="46.07446" lon="6.31244">
        <ele>519.25</ele>
        <time>2020-04-07T08:35:55Z</time>
      </trkpt>
      <trkpt lat="46.07442" lon="6.31258">
        <ele>518.29</ele>
        <time>2020-04-07T08:35:56Z</time>
      </trkpt>
      <trkpt lat="46.07419" lon="6.31317">
        <ele>516.37</ele>
        <time>2020-04-07T08:36:01Z</time>
      </trkpt>
      <trkpt lat="46.07414" lon="6.31329">
        <ele>516.37</ele>
        <time>2020-04-07T08:36:02Z</time>
      </trkpt>
      <trkpt lat="46.07405" lon="6.31336">
        <ele>516.37</ele>
        <time>2020-04-07T08:36:03Z</time>
      </trkpt>
      <trkpt lat="46.074" lon="6.31345">
        <ele>516.37</ele>
        <time>2020-04-07T08:36:04Z</time>
      </trkpt>
      <trkpt lat="46.07396" lon="6.31355">
        <ele>516.37</ele>
        <time>2020-04-07T08:36:05Z</time>
      </trkpt>
      <trkpt lat="46.07394" lon="6.31367">
        <ele>516.37</ele>
        <time>2020-04-07T08:36:06Z</time>
      </trkpt>
      <trkpt lat="46.07397" lon="6.31378">
        <ele>516.37</ele>
        <time>2020-04-07T08:36:07Z</time>
      </trkpt>
      <trkpt lat="46.07399" lon="6.3139">
        <ele>516.37</ele>
        <time>2020-04-07T08:36:08Z</time>
      </trkpt>
      <trkpt lat="46.07397" lon="6.31403">
        <ele>516.37</ele>
        <time>2020-04-07T08:36:09Z</time>
      </trkpt>
      <trkpt lat="46.07393" lon="6.31414">
        <ele>515.88</ele>
        <time>2020-04-07T08:36:10Z</time>
      </trkpt>
      <trkpt lat="46.07388" lon="6.31427">
        <ele>515.4</ele>
        <time>2020-04-07T08:36:11Z</time>
      </trkpt>
      <trkpt lat="46.07384" lon="6.31439">
        <ele>514.92</ele>
        <time>2020-04-07T08:36:12Z</time>
      </trkpt>
      <trkpt lat="46.07378" lon="6.31454">
        <ele>514.92</ele>
        <time>2020-04-07T08:36:13Z</time>
      </trkpt>
      <trkpt lat="46.07369" lon="6.31464">
        <ele>514.44</ele>
        <time>2020-04-07T08:36:14Z</time>
      </trkpt>
      <trkpt lat="46.07278" lon="6.3158">
        <ele>511.56</ele>
        <time>2020-04-07T08:36:23Z</time>
      </trkpt>
      <trkpt lat="46.07165" lon="6.31748">
        <ele>511.08</ele>
        <time>2020-04-07T08:36:34Z</time>
      </trkpt>
      <trkpt lat="46.07072" lon="6.31938">
        <ele>509.64</ele>
        <time>2020-04-07T08:36:44Z</time>
      </trkpt>
      <trkpt lat="46.07027" lon="6.32121">
        <ele>506.75</ele>
        <time>2020-04-07T08:36:53Z</time>
      </trkpt>
      <trkpt lat="46.07026" lon="6.32141">
        <ele>506.75</ele>
        <time>2020-04-07T08:36:54Z</time>
      </trkpt>
      <trkpt lat="46.07029" lon="6.32218">
        <ele>506.27</ele>
        <time>2020-04-07T08:36:58Z</time>
      </trkpt>
      <trkpt lat="46.07072" lon="6.32399">
        <ele>503.87</ele>
        <time>2020-04-07T08:37:08Z</time>
      </trkpt>
      <trkpt lat="46.07104" lon="6.32584">
        <ele>498.1</ele>
        <time>2020-04-07T08:37:18Z</time>
      </trkpt>
      <trkpt lat="46.07114" lon="6.32726">
        <ele>491.37</ele>
        <time>2020-04-07T08:37:27Z</time>
      </trkpt>
      <trkpt lat="46.07114" lon="6.32737">
        <ele>490.89</ele>
        <time>2020-04-07T08:37:28Z</time>
      </trkpt>
      <trkpt lat="46.07108" lon="6.3275">
        <ele>489.93</ele>
        <time>2020-04-07T08:37:29Z</time>
      </trkpt>
      <trkpt lat="46.07108" lon="6.32759">
        <ele>488.97</ele>
        <time>2020-04-07T08:37:30Z</time>
      </trkpt>
      <trkpt lat="46.07109" lon="6.32768">
        <ele>488.97</ele>
        <time>2020-04-07T08:37:31Z</time>
      </trkpt>
      <trkpt lat="46.07113" lon="6.32777">
        <ele>488.97</ele>
        <time>2020-04-07T08:37:32Z</time>
      </trkpt>
      <trkpt lat="46.07119" lon="6.32781">
        <ele>488.49</ele>
        <time>2020-04-07T08:37:33Z</time>
      </trkpt>
      <trkpt lat="46.07126" lon="6.32781">
        <ele>488.01</ele>
        <time>2020-04-07T08:37:34Z</time>
      </trkpt>
      <trkpt lat="46.07135" lon="6.32777">
        <ele>488.01</ele>
        <time>2020-04-07T08:37:35Z</time>
      </trkpt>
      <trkpt lat="46.07142" lon="6.32759">
        <ele>488.01</ele>
        <time>2020-04-07T08:37:36Z</time>
      </trkpt>
      <trkpt lat="46.07153" lon="6.32752">
        <ele>487.53</ele>
        <time>2020-04-07T08:37:37Z</time>
      </trkpt>
      <trkpt lat="46.07171" lon="6.32733">
        <ele>485.6</ele>
        <time>2020-04-07T08:37:39Z</time>
      </trkpt>
      <trkpt lat="46.07214" lon="6.32667">
        <ele>480.8</ele>
        <time>2020-04-07T08:37:46Z</time>
      </trkpt>
      <trkpt lat="46.07221" lon="6.32658">
        <ele>479.84</ele>
        <time>2020-04-07T08:37:48Z</time>
      </trkpt>
      <trkpt lat="46.07226" lon="6.32649">
        <ele>479.35</ele>
        <time>2020-04-07T08:37:50Z</time>
      </trkpt>
      <trkpt lat="46.07235" lon="6.32646">
        <ele>478.87</ele>
        <time>2020-04-07T08:37:51Z</time>
      </trkpt>
      <trkpt lat="46.07234" lon="6.32639">
        <ele>478.39</ele>
        <time>2020-04-07T08:37:52Z</time>
      </trkpt>
      <trkpt lat="46.07224" lon="6.32634">
        <ele>478.39</ele>
        <time>2020-04-07T08:37:53Z</time>
      </trkpt>
      <trkpt lat="46.07224" lon="6.32634">
        <ele>478.39</ele>
        <time>2020-04-07T08:37:54Z</time>
      </trkpt>
      <trkpt lat="46.07221" lon="6.3263">
        <ele>478.39</ele>
        <time>2020-04-07T08:37:55Z</time>
      </trkpt>
      <trkpt lat="46.07217" lon="6.32623">
        <ele>478.39</ele>
        <time>2020-04-07T08:37:56Z</time>
      </trkpt>
      <trkpt lat="46.07212" lon="6.32615">
        <ele>478.39</ele>
        <time>2020-04-07T08:37:57Z</time>
      </trkpt>
      <trkpt lat="46.07207" lon="6.32607">
        <ele>478.87</ele>
        <time>2020-04-07T08:37:58Z</time>
      </trkpt>
      <trkpt lat="46.07203" lon="6.32599">
        <ele>479.84</ele>
        <time>2020-04-07T08:37:59Z</time>
      </trkpt>
      <trkpt lat="46.07199" lon="6.3259">
        <ele>480.8</ele>
        <time>2020-04-07T08:38:00Z</time>
      </trkpt>
      <trkpt lat="46.07196" lon="6.3258">
        <ele>481.76</ele>
        <time>2020-04-07T08:38:01Z</time>
      </trkpt>
      <trkpt lat="46.07194" lon="6.32567">
        <ele>482.72</ele>
        <time>2020-04-07T08:38:02Z</time>
      </trkpt>
      <trkpt lat="46.07193" lon="6.32554">
        <ele>483.68</ele>
        <time>2020-04-07T08:38:03Z</time>
      </trkpt>
      <trkpt lat="46.07192" lon="6.32543">
        <ele>484.16</ele>
        <time>2020-04-07T08:38:04Z</time>
      </trkpt>
      <trkpt lat="46.07191" lon="6.32534">
        <ele>484.64</ele>
        <time>2020-04-07T08:38:05Z</time>
      </trkpt>
      <trkpt lat="46.07186" lon="6.32512">
        <ele>486.56</ele>
        <time>2020-04-07T08:38:10Z</time>
      </trkpt>
      <trkpt lat="46.07185" lon="6.32507">
        <ele>487.05</ele>
        <time>2020-04-07T08:38:11Z</time>
      </trkpt>
      <trkpt lat="46.07176" lon="6.32505">
        <ele>487.53</ele>
        <time>2020-04-07T08:38:12Z</time>
      </trkpt>
      <trkpt lat="46.07174" lon="6.32509">
        <ele>488.01</ele>
        <time>2020-04-07T08:38:13Z</time>
      </trkpt>
      <trkpt lat="46.07171" lon="6.32517">
        <ele>488.01</ele>
        <time>2020-04-07T08:38:14Z</time>
      </trkpt>
      <trkpt lat="46.07168" lon="6.32524">
        <ele>488.49</ele>
        <time>2020-04-07T08:38:15Z</time>
      </trkpt>
      <trkpt lat="46.07166" lon="6.3253">
        <ele>488.97</ele>
        <time>2020-04-07T08:38:16Z</time>
      </trkpt>
      <trkpt lat="46.07163" lon="6.32536">
        <ele>489.45</ele>
        <time>2020-04-07T08:38:17Z</time>
      </trkpt>
      <trkpt lat="46.07161" lon="6.32541">
        <ele>489.45</ele>
        <time>2020-04-07T08:38:18Z</time>
      </trkpt>
      <trkpt lat="46.07158" lon="6.3255">
        <ele>489.93</ele>
        <time>2020-04-07T08:38:21Z</time>
      </trkpt>
      <trkpt lat="46.07158" lon="6.3255">
        <ele>489.45</ele>
        <time>2020-04-07T08:38:35Z</time>
      </trkpt>
      <trkpt lat="46.07162" lon="6.32556">
        <ele>505.31</ele>
        <time>2020-04-07T09:17:23Z</time>
      </trkpt>
      <trkpt lat="46.07163" lon="6.32548">
        <ele>507.71</ele>
        <time>2020-04-07T09:17:41Z</time>
      </trkpt>
      <trkpt lat="46.07159" lon="6.32547">
        <ele>507.71</ele>
        <time>2020-04-07T09:17:42Z</time>
      </trkpt>
      <trkpt lat="46.07158" lon="6.3255">
        <ele>505.79</ele>
        <time>2020-04-07T09:17:43Z</time>
      </trkpt>
      <trkpt lat="46.07156" lon="6.32554">
        <ele>504.35</ele>
        <time>2020-04-07T09:17:44Z</time>
      </trkpt>
      <trkpt lat="46.07155" lon="6.32558">
        <ele>502.91</ele>
        <time>2020-04-07T09:17:45Z</time>
      </trkpt>
      <trkpt lat="46.07154" lon="6.3256">
        <ele>502.43</ele>
        <time>2020-04-07T09:17:46Z</time>
      </trkpt>
      <trkpt lat="46.07155" lon="6.32563">
        <ele>501.95</ele>
        <time>2020-04-07T09:17:47Z</time>
      </trkpt>
      <trkpt lat="46.07153" lon="6.32562">
        <ele>501.95</ele>
        <time>2020-04-07T09:17:48Z</time>
      </trkpt>
      <trkpt lat="46.07157" lon="6.32552">
        <ele>501.46</ele>
        <time>2020-04-07T09:17:49Z</time>
      </trkpt>
      <trkpt lat="46.0716" lon="6.32545">
        <ele>501.46</ele>
        <time>2020-04-07T09:17:50Z</time>
      </trkpt>
      <trkpt lat="46.07164" lon="6.32534">
        <ele>501.46</ele>
        <time>2020-04-07T09:17:51Z</time>
      </trkpt>
      <trkpt lat="46.07168" lon="6.32524">
        <ele>501.46</ele>
        <time>2020-04-07T09:17:52Z</time>
      </trkpt>
      <trkpt lat="46.07171" lon="6.32516">
        <ele>500.98</ele>
        <time>2020-04-07T09:17:53Z</time>
      </trkpt>
      <trkpt lat="46.07174" lon="6.3251">
        <ele>500.98</ele>
        <time>2020-04-07T09:17:54Z</time>
      </trkpt>
      <trkpt lat="46.0719" lon="6.32527">
        <ele>500.98</ele>
        <time>2020-04-07T09:17:55Z</time>
      </trkpt>
      <trkpt lat="46.0719" lon="6.32527">
        <ele>500.98</ele>
        <time>2020-04-07T09:17:56Z</time>
      </trkpt>
      <trkpt lat="46.07187" lon="6.32515">
        <ele>500.5</ele>
        <time>2020-04-07T09:17:57Z</time>
      </trkpt>
      <trkpt lat="46.07188" lon="6.32518">
        <ele>500.02</ele>
        <time>2020-04-07T09:17:58Z</time>
      </trkpt>
      <trkpt lat="46.07189" lon="6.32525">
        <ele>499.54</ele>
        <time>2020-04-07T09:17:59Z</time>
      </trkpt>
      <trkpt lat="46.07191" lon="6.32536">
        <ele>499.54</ele>
        <time>2020-04-07T09:18:00Z</time>
      </trkpt>
      <trkpt lat="46.07192" lon="6.32551">
        <ele>499.06</ele>
        <time>2020-04-07T09:18:01Z</time>
      </trkpt>
      <trkpt lat="46.07194" lon="6.32567">
        <ele>498.58</ele>
        <time>2020-04-07T09:18:02Z</time>
      </trkpt>
      <trkpt lat="46.07196" lon="6.32582">
        <ele>498.1</ele>
        <time>2020-04-07T09:18:03Z</time>
      </trkpt>
      <trkpt lat="46.07201" lon="6.32594">
        <ele>497.14</ele>
        <time>2020-04-07T09:18:04Z</time>
      </trkpt>
      <trkpt lat="46.07206" lon="6.32604">
        <ele>496.66</ele>
        <time>2020-04-07T09:18:05Z</time>
      </trkpt>
      <trkpt lat="46.07211" lon="6.32614">
        <ele>495.7</ele>
        <time>2020-04-07T09:18:06Z</time>
      </trkpt>
      <trkpt lat="46.07216" lon="6.32622">
        <ele>495.22</ele>
        <time>2020-04-07T09:18:07Z</time>
      </trkpt>
      <trkpt lat="46.07224" lon="6.32634">
        <ele>494.26</ele>
        <time>2020-04-07T09:18:08Z</time>
      </trkpt>
      <trkpt lat="46.07225" lon="6.32642">
        <ele>493.29</ele>
        <time>2020-04-07T09:18:09Z</time>
      </trkpt>
      <trkpt lat="46.0722" lon="6.32658">
        <ele>491.85</ele>
        <time>2020-04-07T09:18:10Z</time>
      </trkpt>
      <trkpt lat="46.07214" lon="6.32667">
        <ele>491.37</ele>
        <time>2020-04-07T09:18:11Z</time>
      </trkpt>
      <trkpt lat="46.07205" lon="6.3268">
        <ele>490.89</ele>
        <time>2020-04-07T09:18:12Z</time>
      </trkpt>
      <trkpt lat="46.07195" lon="6.32696">
        <ele>490.89</ele>
        <time>2020-04-07T09:18:13Z</time>
      </trkpt>
      <trkpt lat="46.07164" lon="6.32741">
        <ele>491.85</ele>
        <time>2020-04-07T09:18:16Z</time>
      </trkpt>
      <trkpt lat="46.07157" lon="6.32748">
        <ele>492.81</ele>
        <time>2020-04-07T09:18:17Z</time>
      </trkpt>
      <trkpt lat="46.07147" lon="6.32757">
        <ele>493.29</ele>
        <time>2020-04-07T09:18:18Z</time>
      </trkpt>
      <trkpt lat="46.07145" lon="6.32758">
        <ele>493.29</ele>
        <time>2020-04-07T09:18:19Z</time>
      </trkpt>
      <trkpt lat="46.07136" lon="6.3275">
        <ele>493.77</ele>
        <time>2020-04-07T09:18:20Z</time>
      </trkpt>
      <trkpt lat="46.07131" lon="6.32746">
        <ele>494.26</ele>
        <time>2020-04-07T09:18:21Z</time>
      </trkpt>
      <trkpt lat="46.07124" lon="6.32733">
        <ele>494.26</ele>
        <time>2020-04-07T09:18:22Z</time>
      </trkpt>
      <trkpt lat="46.07122" lon="6.32719">
        <ele>494.74</ele>
        <time>2020-04-07T09:18:23Z</time>
      </trkpt>
      <trkpt lat="46.07121" lon="6.32701">
        <ele>494.74</ele>
        <time>2020-04-07T09:18:24Z</time>
      </trkpt>
      <trkpt lat="46.07119" lon="6.32681">
        <ele>495.22</ele>
        <time>2020-04-07T09:18:25Z</time>
      </trkpt>
      <trkpt lat="46.07097" lon="6.32497">
        <ele>501.46</ele>
        <time>2020-04-07T09:18:33Z</time>
      </trkpt>
      <trkpt lat="46.07042" lon="6.32286">
        <ele>508.67</ele>
        <time>2020-04-07T09:18:42Z</time>
      </trkpt>
      <trkpt lat="46.07025" lon="6.32156">
        <ele>511.08</ele>
        <time>2020-04-07T09:18:47Z</time>
      </trkpt>
      <trkpt lat="46.07026" lon="6.3213">
        <ele>511.56</ele>
        <time>2020-04-07T09:18:48Z</time>
      </trkpt>
      <trkpt lat="46.07059" lon="6.31973">
        <ele>513.96</ele>
        <time>2020-04-07T09:18:54Z</time>
      </trkpt>
      <trkpt lat="46.07157" lon="6.31761">
        <ele>513.96</ele>
        <time>2020-04-07T09:19:02Z</time>
      </trkpt>
      <trkpt lat="46.07311" lon="6.31532">
        <ele>515.4</ele>
        <time>2020-04-07T09:19:12Z</time>
      </trkpt>
      <trkpt lat="46.07378" lon="6.31455">
        <ele>516.85</ele>
        <time>2020-04-07T09:19:18Z</time>
      </trkpt>
      <trkpt lat="46.07394" lon="6.31438">
        <ele>517.81</ele>
        <time>2020-04-07T09:19:20Z</time>
      </trkpt>
      <trkpt lat="46.07408" lon="6.31415">
        <ele>519.25</ele>
        <time>2020-04-07T09:19:24Z</time>
      </trkpt>
      <trkpt lat="46.07415" lon="6.31405">
        <ele>519.73</ele>
        <time>2020-04-07T09:19:25Z</time>
      </trkpt>
      <trkpt lat="46.07419" lon="6.31404">
        <ele>520.21</ele>
        <time>2020-04-07T09:19:26Z</time>
      </trkpt>
      <trkpt lat="46.07425" lon="6.31402">
        <ele>520.21</ele>
        <time>2020-04-07T09:19:27Z</time>
      </trkpt>
      <trkpt lat="46.07437" lon="6.31411">
        <ele>520.21</ele>
        <time>2020-04-07T09:19:28Z</time>
      </trkpt>
      <trkpt lat="46.07442" lon="6.3142">
        <ele>519.73</ele>
        <time>2020-04-07T09:19:29Z</time>
      </trkpt>
      <trkpt lat="46.07446" lon="6.31429">
        <ele>519.25</ele>
        <time>2020-04-07T09:19:30Z</time>
      </trkpt>
      <trkpt lat="46.07449" lon="6.31436">
        <ele>518.29</ele>
        <time>2020-04-07T09:19:31Z</time>
      </trkpt>
      <trkpt lat="46.0745" lon="6.31445">
        <ele>517.33</ele>
        <time>2020-04-07T09:19:32Z</time>
      </trkpt>
      <trkpt lat="46.07451" lon="6.31452">
        <ele>516.37</ele>
        <time>2020-04-07T09:19:33Z</time>
      </trkpt>
      <trkpt lat="46.0745" lon="6.31459">
        <ele>514.92</ele>
        <time>2020-04-07T09:19:34Z</time>
      </trkpt>
      <trkpt lat="46.07447" lon="6.31464">
        <ele>514.44</ele>
        <time>2020-04-07T09:19:35Z</time>
      </trkpt>
      <trkpt lat="46.07443" lon="6.31469">
        <ele>513.48</ele>
        <time>2020-04-07T09:19:36Z</time>
      </trkpt>
      <trkpt lat="46.07439" lon="6.31475">
        <ele>512.52</ele>
        <time>2020-04-07T09:19:37Z</time>
      </trkpt>
      <trkpt lat="46.07437" lon="6.3148">
        <ele>511.56</ele>
        <time>2020-04-07T09:19:38Z</time>
      </trkpt>
      <trkpt lat="46.07432" lon="6.31491">
        <ele>510.6</ele>
        <time>2020-04-07T09:19:39Z</time>
      </trkpt>
      <trkpt lat="46.07428" lon="6.315">
        <ele>509.64</ele>
        <time>2020-04-07T09:19:40Z</time>
      </trkpt>
      <trkpt lat="46.07425" lon="6.31507">
        <ele>509.16</ele>
        <time>2020-04-07T09:19:41Z</time>
      </trkpt>
      <trkpt lat="46.07422" lon="6.31514">
        <ele>508.67</ele>
        <time>2020-04-07T09:19:42Z</time>
      </trkpt>
      <trkpt lat="46.0742" lon="6.31519">
        <ele>508.19</ele>
        <time>2020-04-07T09:19:43Z</time>
      </trkpt>
      <trkpt lat="46.07416" lon="6.31519">
        <ele>507.71</ele>
        <time>2020-04-07T09:19:44Z</time>
      </trkpt>
      <trkpt lat="46.07411" lon="6.31517">
        <ele>507.23</ele>
        <time>2020-04-07T09:19:45Z</time>
      </trkpt>
      <trkpt lat="46.07406" lon="6.31513">
        <ele>507.23</ele>
        <time>2020-04-07T09:19:46Z</time>
      </trkpt>
      <trkpt lat="46.07402" lon="6.31505">
        <ele>506.75</ele>
        <time>2020-04-07T09:19:47Z</time>
      </trkpt>
      <trkpt lat="46.07398" lon="6.31498">
        <ele>506.75</ele>
        <time>2020-04-07T09:19:48Z</time>
      </trkpt>
      <trkpt lat="46.07395" lon="6.31491">
        <ele>506.27</ele>
        <time>2020-04-07T09:19:49Z</time>
      </trkpt>
      <trkpt lat="46.07389" lon="6.31487">
        <ele>506.27</ele>
        <time>2020-04-07T09:19:50Z</time>
      </trkpt>
      <trkpt lat="46.07386" lon="6.3149">
        <ele>506.27</ele>
        <time>2020-04-07T09:19:51Z</time>
      </trkpt>
      <trkpt lat="46.07383" lon="6.31493">
        <ele>505.79</ele>
        <time>2020-04-07T09:19:52Z</time>
      </trkpt>
      <trkpt lat="46.0738" lon="6.31496">
        <ele>505.79</ele>
        <time>2020-04-07T09:19:53Z</time>
      </trkpt>
      <trkpt lat="46.07378" lon="6.31499">
        <ele>505.31</ele>
        <time>2020-04-07T09:19:54Z</time>
      </trkpt>
      <trkpt lat="46.07375" lon="6.31501">
        <ele>505.31</ele>
        <time>2020-04-07T09:19:55Z</time>
      </trkpt>
      <trkpt lat="46.07373" lon="6.31504">
        <ele>505.31</ele>
        <time>2020-04-07T09:19:56Z</time>
      </trkpt>
      <trkpt lat="46.0737" lon="6.31497">
        <ele>505.79</ele>
        <time>2020-04-07T09:20:03Z</time>
      </trkpt>
      <trkpt lat="46.0737" lon="6.31497">
        <ele>505.79</ele>
        <time>2020-04-07T09:21:10Z</time>
      </trkpt>
      <trkpt lat="46.07367" lon="6.31492">
        <ele>540.4</ele>
        <time>2020-04-07T09:26:17Z</time>
      </trkpt>
      <trkpt lat="46.07375" lon="6.31504">
        <ele>518.77</ele>
        <time>2020-04-07T09:26:31Z</time>
      </trkpt>
      <trkpt lat="46.07392" lon="6.31486">
        <ele>518.77</ele>
        <time>2020-04-07T09:26:33Z</time>
      </trkpt>
      <trkpt lat="46.07393" lon="6.31487">
        <ele>519.25</ele>
        <time>2020-04-07T09:26:34Z</time>
      </trkpt>
      <trkpt lat="46.0739" lon="6.31486">
        <ele>519.25</ele>
        <time>2020-04-07T09:26:35Z</time>
      </trkpt>
      <trkpt lat="46.07391" lon="6.31484">
        <ele>519.25</ele>
        <time>2020-04-07T09:26:36Z</time>
      </trkpt>
      <trkpt lat="46.07396" lon="6.31494">
        <ele>518.77</ele>
        <time>2020-04-07T09:26:37Z</time>
      </trkpt>
      <trkpt lat="46.07398" lon="6.31498">
        <ele>518.77</ele>
        <time>2020-04-07T09:26:38Z</time>
      </trkpt>
      <trkpt lat="46.07401" lon="6.31504">
        <ele>518.29</ele>
        <time>2020-04-07T09:26:39Z</time>
      </trkpt>
      <trkpt lat="46.07404" lon="6.3151">
        <ele>516.85</ele>
        <time>2020-04-07T09:26:40Z</time>
      </trkpt>
      <trkpt lat="46.07406" lon="6.31514">
        <ele>516.85</ele>
        <time>2020-04-07T09:26:41Z</time>
      </trkpt>
      <trkpt lat="46.07413" lon="6.31517">
        <ele>516.37</ele>
        <time>2020-04-07T09:26:42Z</time>
      </trkpt>
      <trkpt lat="46.07416" lon="6.31519">
        <ele>515.88</ele>
        <time>2020-04-07T09:26:43Z</time>
      </trkpt>
      <trkpt lat="46.07419" lon="6.31521">
        <ele>515.88</ele>
        <time>2020-04-07T09:26:44Z</time>
      </trkpt>
      <trkpt lat="46.0742" lon="6.31518">
        <ele>515.4</ele>
        <time>2020-04-07T09:26:45Z</time>
      </trkpt>
      <trkpt lat="46.07422" lon="6.31514">
        <ele>515.4</ele>
        <time>2020-04-07T09:26:46Z</time>
      </trkpt>
      <trkpt lat="46.07425" lon="6.31508">
        <ele>515.4</ele>
        <time>2020-04-07T09:26:47Z</time>
      </trkpt>
      <trkpt lat="46.07429" lon="6.31498">
        <ele>514.92</ele>
        <time>2020-04-07T09:26:48Z</time>
      </trkpt>
      <trkpt lat="46.07434" lon="6.31486">
        <ele>514.92</ele>
        <time>2020-04-07T09:26:49Z</time>
      </trkpt>
      <trkpt lat="46.0744" lon="6.31474">
        <ele>514.44</ele>
        <time>2020-04-07T09:26:50Z</time>
      </trkpt>
      <trkpt lat="46.07451" lon="6.31458">
        <ele>513.96</ele>
        <time>2020-04-07T09:26:52Z</time>
      </trkpt>
      <trkpt lat="46.07451" lon="6.31454">
        <ele>513.48</ele>
        <time>2020-04-07T09:26:53Z</time>
      </trkpt>
      <trkpt lat="46.0745" lon="6.31444">
        <ele>513.48</ele>
        <time>2020-04-07T09:26:54Z</time>
      </trkpt>
      <trkpt lat="46.07448" lon="6.31434">
        <ele>513.48</ele>
        <time>2020-04-07T09:26:55Z</time>
      </trkpt>
      <trkpt lat="46.07443" lon="6.31423">
        <ele>513.48</ele>
        <time>2020-04-07T09:26:56Z</time>
      </trkpt>
      <trkpt lat="46.07439" lon="6.31414">
        <ele>513.96</ele>
        <time>2020-04-07T09:26:57Z</time>
      </trkpt>
      <trkpt lat="46.07443" lon="6.31379">
        <ele>514.44</ele>
        <time>2020-04-07T09:26:58Z</time>
      </trkpt>
      <trkpt lat="46.07444" lon="6.31362">
        <ele>514.92</ele>
        <time>2020-04-07T09:27:00Z</time>
      </trkpt>
      <trkpt lat="46.0744" lon="6.31351">
        <ele>515.4</ele>
        <time>2020-04-07T09:27:01Z</time>
      </trkpt>
      <trkpt lat="46.07435" lon="6.31341">
        <ele>515.88</ele>
        <time>2020-04-07T09:27:02Z</time>
      </trkpt>
      <trkpt lat="46.07427" lon="6.31334">
        <ele>516.37</ele>
        <time>2020-04-07T09:27:03Z</time>
      </trkpt>
      <trkpt lat="46.07419" lon="6.31333">
        <ele>516.37</ele>
        <time>2020-04-07T09:27:04Z</time>
      </trkpt>
      <trkpt lat="46.07409" lon="6.31333">
        <ele>516.37</ele>
        <time>2020-04-07T09:27:05Z</time>
      </trkpt>
      <trkpt lat="46.07401" lon="6.31343">
        <ele>516.85</ele>
        <time>2020-04-07T09:27:06Z</time>
      </trkpt>
      <trkpt lat="46.07398" lon="6.31347">
        <ele>516.85</ele>
        <time>2020-04-07T09:27:07Z</time>
      </trkpt>
      <trkpt lat="46.07381" lon="6.31365">
        <ele>517.33</ele>
        <time>2020-04-07T09:27:08Z</time>
      </trkpt>
      <trkpt lat="46.07368" lon="6.31366">
        <ele>517.33</ele>
        <time>2020-04-07T09:27:09Z</time>
      </trkpt>
      <trkpt lat="46.07353" lon="6.31368">
        <ele>517.33</ele>
        <time>2020-04-07T09:27:10Z</time>
      </trkpt>
      <trkpt lat="46.07336" lon="6.31371">
        <ele>517.81</ele>
        <time>2020-04-07T09:27:11Z</time>
      </trkpt>
      <trkpt lat="46.07201" lon="6.31394">
        <ele>521.17</ele>
        <time>2020-04-07T09:27:20Z</time>
      </trkpt>
      <trkpt lat="46.07059" lon="6.31419">
        <ele>525.02</ele>
        <time>2020-04-07T09:27:31Z</time>
      </trkpt>
      <trkpt lat="46.07006" lon="6.31428">
        <ele>528.38</ele>
        <time>2020-04-07T09:27:37Z</time>
      </trkpt>
      <trkpt lat="46.07" lon="6.31429">
        <ele>528.86</ele>
        <time>2020-04-07T09:27:38Z</time>
      </trkpt>
      <trkpt lat="46.06972" lon="6.31433">
        <ele>529.82</ele>
        <time>2020-04-07T09:27:41Z</time>
      </trkpt>
      <trkpt lat="46.06961" lon="6.31435">
        <ele>531.27</ele>
        <time>2020-04-07T09:27:42Z</time>
      </trkpt>
      <trkpt lat="46.06828" lon="6.31445">
        <ele>539.92</ele>
        <time>2020-04-07T09:27:53Z</time>
      </trkpt>
      <trkpt lat="46.06797" lon="6.31443">
        <ele>540.88</ele>
        <time>2020-04-07T09:27:56Z</time>
      </trkpt>
      <trkpt lat="46.0679" lon="6.31442">
        <ele>541.36</ele>
        <time>2020-04-07T09:27:57Z</time>
      </trkpt>
      <trkpt lat="46.06785" lon="6.31442">
        <ele>541.36</ele>
        <time>2020-04-07T09:27:58Z</time>
      </trkpt>
      <trkpt lat="46.0678" lon="6.31441">
        <ele>541.36</ele>
        <time>2020-04-07T09:27:59Z</time>
      </trkpt>
      <trkpt lat="46.06775" lon="6.31431">
        <ele>541.84</ele>
        <time>2020-04-07T09:28:00Z</time>
      </trkpt>
      <trkpt lat="46.06771" lon="6.31423">
        <ele>542.32</ele>
        <time>2020-04-07T09:28:01Z</time>
      </trkpt>
      <trkpt lat="46.06767" lon="6.31414">
        <ele>542.32</ele>
        <time>2020-04-07T09:28:02Z</time>
      </trkpt>
      <trkpt lat="46.06763" lon="6.31406">
        <ele>542.8</ele>
        <time>2020-04-07T09:28:03Z</time>
      </trkpt>
      <trkpt lat="46.06759" lon="6.31397">
        <ele>542.8</ele>
        <time>2020-04-07T09:28:04Z</time>
      </trkpt>
      <trkpt lat="46.06755" lon="6.3139">
        <ele>542.8</ele>
        <time>2020-04-07T09:28:05Z</time>
      </trkpt>
      <trkpt lat="46.06752" lon="6.31379">
        <ele>543.28</ele>
        <time>2020-04-07T09:28:06Z</time>
      </trkpt>
      <trkpt lat="46.06751" lon="6.31367">
        <ele>543.76</ele>
        <time>2020-04-07T09:28:07Z</time>
      </trkpt>
      <trkpt lat="46.0675" lon="6.31338">
        <ele>545.2</ele>
        <time>2020-04-07T09:28:09Z</time>
      </trkpt>
      <trkpt lat="46.06747" lon="6.31326">
        <ele>545.69</ele>
        <time>2020-04-07T09:28:10Z</time>
      </trkpt>
      <trkpt lat="46.06744" lon="6.31314">
        <ele>546.65</ele>
        <time>2020-04-07T09:28:11Z</time>
      </trkpt>
      <trkpt lat="46.06741" lon="6.31304">
        <ele>548.09</ele>
        <time>2020-04-07T09:28:12Z</time>
      </trkpt>
      <trkpt lat="46.06739" lon="6.31299">
        <ele>549.53</ele>
        <time>2020-04-07T09:28:13Z</time>
      </trkpt>
      <trkpt lat="46.06738" lon="6.31295">
        <ele>550.97</ele>
        <time>2020-04-07T09:28:14Z</time>
      </trkpt>
      <trkpt lat="46.06737" lon="6.31293">
        <ele>551.93</ele>
        <time>2020-04-07T09:28:15Z</time>
      </trkpt>
      <trkpt lat="46.06737" lon="6.31291">
        <ele>553.38</ele>
        <time>2020-04-07T09:28:16Z</time>
      </trkpt>
      <trkpt lat="46.06737" lon="6.31291">
        <ele>554.34</ele>
        <time>2020-04-07T09:28:29Z</time>
      </trkpt>
      <trkpt lat="46.06734" lon="6.31284">
        <ele>556.74</ele>
        <time>2020-04-07T09:28:33Z</time>
      </trkpt>
      <trkpt lat="46.06731" lon="6.31277">
        <ele>558.18</ele>
        <time>2020-04-07T09:28:34Z</time>
      </trkpt>
      <trkpt lat="46.06728" lon="6.3127">
        <ele>559.14</ele>
        <time>2020-04-07T09:28:35Z</time>
      </trkpt>
      <trkpt lat="46.06726" lon="6.31246">
        <ele>560.11</ele>
        <time>2020-04-07T09:28:36Z</time>
      </trkpt>
      <trkpt lat="46.06725" lon="6.31236">
        <ele>561.07</ele>
        <time>2020-04-07T09:28:37Z</time>
      </trkpt>
      <trkpt lat="46.06722" lon="6.31214">
        <ele>561.55</ele>
        <time>2020-04-07T09:28:38Z</time>
      </trkpt>
      <trkpt lat="46.06715" lon="6.31203">
        <ele>562.03</ele>
        <time>2020-04-07T09:28:39Z</time>
      </trkpt>
      <trkpt lat="46.06705" lon="6.31192">
        <ele>562.51</ele>
        <time>2020-04-07T09:28:40Z</time>
      </trkpt>
      <trkpt lat="46.06696" lon="6.31181">
        <ele>562.99</ele>
        <time>2020-04-07T09:28:41Z</time>
      </trkpt>
      <trkpt lat="46.0665" lon="6.31134">
        <ele>565.87</ele>
        <time>2020-04-07T09:28:46Z</time>
      </trkpt>
      <trkpt lat="46.0664" lon="6.31128">
        <ele>566.83</ele>
        <time>2020-04-07T09:28:47Z</time>
      </trkpt>
      <trkpt lat="46.0663" lon="6.31121">
        <ele>567.32</ele>
        <time>2020-04-07T09:28:48Z</time>
      </trkpt>
      <trkpt lat="46.06614" lon="6.31108">
        <ele>567.32</ele>
        <time>2020-04-07T09:28:50Z</time>
      </trkpt>
      <trkpt lat="46.06601" lon="6.311">
        <ele>565.39</ele>
        <time>2020-04-07T09:28:53Z</time>
      </trkpt>
      <trkpt lat="46.06599" lon="6.31089">
        <ele>565.39</ele>
        <time>2020-04-07T09:28:54Z</time>
      </trkpt>
      <trkpt lat="46.06601" lon="6.31074">
        <ele>564.91</ele>
        <time>2020-04-07T09:28:55Z</time>
      </trkpt>
      <trkpt lat="46.06607" lon="6.31024">
        <ele>564.91</ele>
        <time>2020-04-07T09:28:58Z</time>
      </trkpt>
      <trkpt lat="46.0661" lon="6.31008">
        <ele>564.91</ele>
        <time>2020-04-07T09:28:59Z</time>
      </trkpt>
      <trkpt lat="46.0663" lon="6.30918">
        <ele>567.8</ele>
        <time>2020-04-07T09:29:06Z</time>
      </trkpt>
      <trkpt lat="46.06632" lon="6.30913">
        <ele>568.28</ele>
        <time>2020-04-07T09:29:07Z</time>
      </trkpt>
      <trkpt lat="46.06649" lon="6.30911">
        <ele>568.76</ele>
        <time>2020-04-07T09:29:08Z</time>
      </trkpt>
      <trkpt lat="46.06687" lon="6.30902">
        <ele>573.08</ele>
        <time>2020-04-07T09:29:13Z</time>
      </trkpt>
      <trkpt lat="46.06692" lon="6.309">
        <ele>575.01</ele>
        <time>2020-04-07T09:29:14Z</time>
      </trkpt>
      <trkpt lat="46.06698" lon="6.30892">
        <ele>576.45</ele>
        <time>2020-04-07T09:29:15Z</time>
      </trkpt>
      <trkpt lat="46.06709" lon="6.30875">
        <ele>579.33</ele>
        <time>2020-04-07T09:29:17Z</time>
      </trkpt>
      <trkpt lat="46.06716" lon="6.30864">
        <ele>580.29</ele>
        <time>2020-04-07T09:29:18Z</time>
      </trkpt>
      <trkpt lat="46.0674" lon="6.30827">
        <ele>581.73</ele>
        <time>2020-04-07T09:29:22Z</time>
      </trkpt>
      <trkpt lat="46.06743" lon="6.30821">
        <ele>581.73</ele>
        <time>2020-04-07T09:29:23Z</time>
      </trkpt>
      <trkpt lat="46.06746" lon="6.30817">
        <ele>581.73</ele>
        <time>2020-04-07T09:29:24Z</time>
      </trkpt>
      <trkpt lat="46.06747" lon="6.30815">
        <ele>581.73</ele>
        <time>2020-04-07T09:29:25Z</time>
      </trkpt>
      <trkpt lat="46.06747" lon="6.30815">
        <ele>581.25</ele>
        <time>2020-04-07T09:29:35Z</time>
      </trkpt>
      <trkpt lat="46.0675" lon="6.30811">
        <ele>579.81</ele>
        <time>2020-04-07T09:30:04Z</time>
      </trkpt>
    </trkseg>
  </trk>
</gpx>